sensor_id;sensor_type;location;lat;lon;timestamp;pressure;altitude;pressure_sealevel;temperature;humidity
73024;BME280;72676;47.526;8.538;2023-09-19T00:00:41;96338.84;;;18.72;73.50
73024;BME280;72676;47.526;8.538;2023-09-19T00:03:08;96333.53;;;18.72;72.79
73024;BME280;72676;47.526;8.538;2023-09-19T00:05:36;96336.19;;;18.72;73.07
73024;BME280;72676;47.526;8.538;2023-09-19T00:08:05;96343.81;;;18.60;72.89
73024;BME280;72676;47.526;8.538;2023-09-19T00:10:34;96352.84;;;18.66;72.89
73024;BME280;72676;47.526;8.538;2023-09-19T00:13:04;96345.91;;;18.65;72.56
73024;BME280;72676;47.526;8.538;2023-09-19T00:15:37;96344.16;;;18.57;73.03
73024;BME280;72676;47.526;8.538;2023-09-19T00:18:04;96349.63;;;18.70;72.46
73024;BME280;72676;47.526;8.538;2023-09-19T00:20:35;96351.47;;;18.70;72.30
73024;BME280;72676;47.526;8.538;2023-09-19T00:23:02;96357.22;;;18.73;72.13
73024;BME280;72676;47.526;8.538;2023-09-19T00:25:30;96373.81;;;18.32;73.80
73024;BME280;72676;47.526;8.538;2023-09-19T00:27:59;96345.84;;;18.29;74.23
73024;BME280;72676;47.526;8.538;2023-09-19T00:30:25;96359.75;;;18.31;74.24
73024;BME280;72676;47.526;8.538;2023-09-19T00:32:52;96359.66;;;18.39;74.07
73024;BME280;72676;47.526;8.538;2023-09-19T00:35:19;96358.28;;;18.43;74.11
73024;BME280;72676;47.526;8.538;2023-09-19T00:37:45;96350.94;;;18.45;74.07
73024;BME280;72676;47.526;8.538;2023-09-19T00:40:12;96362.50;;;18.38;74.61
73024;BME280;72676;47.526;8.538;2023-09-19T00:42:39;96362.19;;;18.33;74.66
73024;BME280;72676;47.526;8.538;2023-09-19T00:45:11;96362.41;;;18.31;74.77
73024;BME280;72676;47.526;8.538;2023-09-19T00:47:39;96363.19;;;18.46;74.42
73024;BME280;72676;47.526;8.538;2023-09-19T00:50:08;96368.22;;;18.70;73.74
73024;BME280;72676;47.526;8.538;2023-09-19T00:52:37;96360.84;;;18.87;73.08
73024;BME280;72676;47.526;8.538;2023-09-19T00:55:06;96364.47;;;18.65;73.39
73024;BME280;72676;47.526;8.538;2023-09-19T00:57:34;96361.78;;;18.44;74.69
73024;BME280;72676;47.526;8.538;2023-09-19T01:00:02;96366.59;;;18.26;75.76
73024;BME280;72676;47.526;8.538;2023-09-19T01:02:33;96365.94;;;18.38;75.53
73024;BME280;72676;47.526;8.538;2023-09-19T01:05:00;96360.00;;;18.36;75.62
73024;BME280;72676;47.526;8.538;2023-09-19T01:07:31;96372.22;;;18.23;76.16
73024;BME280;72676;47.526;8.538;2023-09-19T01:09:58;96363.66;;;18.21;76.31
73024;BME280;72676;47.526;8.538;2023-09-19T01:12:35;96378.06;;;18.04;77.53
73024;BME280;72676;47.526;8.538;2023-09-19T01:21:03;96383.66;;;18.09;77.68
73024;BME280;72676;47.526;8.538;2023-09-19T01:31:59;96390.53;;;18.18;76.85
73024;BME280;72676;47.526;8.538;2023-09-19T01:34:46;96394.28;;;18.09;77.38
73024;BME280;72676;47.526;8.538;2023-09-19T01:37:17;96385.03;;;18.19;76.83
73024;BME280;72676;47.526;8.538;2023-09-19T01:39:50;96390.16;;;18.21;76.33
73024;BME280;72676;47.526;8.538;2023-09-19T01:42:31;96392.09;;;18.12;76.50
73024;BME280;72676;47.526;8.538;2023-09-19T01:45:33;96383.13;;;18.13;76.25
73024;BME280;72676;47.526;8.538;2023-09-19T01:51:09;96387.94;;;17.95;77.10
73024;BME280;72676;47.526;8.538;2023-09-19T01:53:44;96386.19;;;18.02;76.73
73024;BME280;72676;47.526;8.538;2023-09-19T01:56:22;96392.34;;;18.03;76.80
73024;BME280;72676;47.526;8.538;2023-09-19T01:58:53;96392.63;;;18.08;76.32
73024;BME280;72676;47.526;8.538;2023-09-19T02:01:24;96393.06;;;17.97;76.86
73024;BME280;72676;47.526;8.538;2023-09-19T02:03:53;96395.06;;;17.95;76.06
73024;BME280;72676;47.526;8.538;2023-09-19T02:06:20;96393.22;;;17.81;76.70
73024;BME280;72676;47.526;8.538;2023-09-19T02:08:48;96397.78;;;17.87;76.64
73024;BME280;72676;47.526;8.538;2023-09-19T02:11:15;96400.38;;;17.95;76.71
73024;BME280;72676;47.526;8.538;2023-09-19T02:13:42;96394.06;;;17.96;76.43
73024;BME280;72676;47.526;8.538;2023-09-19T02:16:09;96396.16;;;18.00;76.53
73024;BME280;72676;47.526;8.538;2023-09-19T02:18:38;96405.41;;;18.04;76.05
73024;BME280;72676;47.526;8.538;2023-09-19T02:21:05;96394.63;;;18.06;76.21
73024;BME280;72676;47.526;8.538;2023-09-19T02:23:33;96402.38;;;17.93;76.43
73024;BME280;72676;47.526;8.538;2023-09-19T02:25:59;96404.13;;;18.00;75.35
73024;BME280;72676;47.526;8.538;2023-09-19T02:28:30;96398.34;;;17.97;75.44
73024;BME280;72676;47.526;8.538;2023-09-19T02:30:58;96406.97;;;17.99;75.07
73024;BME280;72676;47.526;8.538;2023-09-19T02:33:25;96407.69;;;17.93;75.30
73024;BME280;72676;47.526;8.538;2023-09-19T02:35:55;96401.53;;;17.92;75.54
73024;BME280;72676;47.526;8.538;2023-09-19T02:38:27;96413.25;;;17.98;75.08
73024;BME280;72676;47.526;8.538;2023-09-19T02:40:53;96406.03;;;17.92;75.06
73024;BME280;72676;47.526;8.538;2023-09-19T02:43:22;96410.03;;;17.88;75.13
73024;BME280;72676;47.526;8.538;2023-09-19T02:45:49;96414.25;;;17.97;75.07
73024;BME280;72676;47.526;8.538;2023-09-19T02:48:16;96404.75;;;18.02;75.06
73024;BME280;72676;47.526;8.538;2023-09-19T02:50:45;96403.50;;;18.13;74.59
73024;BME280;72676;47.526;8.538;2023-09-19T02:53:12;96397.28;;;18.06;74.77
73024;BME280;72676;47.526;8.538;2023-09-19T02:55:39;96398.28;;;18.05;74.81
73024;BME280;72676;47.526;8.538;2023-09-19T02:58:09;96403.50;;;18.13;74.50
73024;BME280;72676;47.526;8.538;2023-09-19T03:00:37;96402.78;;;18.19;74.08
73024;BME280;72676;47.526;8.538;2023-09-19T03:03:04;96398.97;;;18.21;74.24
73024;BME280;72676;47.526;8.538;2023-09-19T03:05:32;96393.41;;;18.31;73.56
73024;BME280;72676;47.526;8.538;2023-09-19T03:07:59;96396.59;;;18.41;73.62
73024;BME280;72676;47.526;8.538;2023-09-19T03:10:27;96396.50;;;18.49;72.77
73024;BME280;72676;47.526;8.538;2023-09-19T03:12:54;96392.84;;;18.35;73.13
73024;BME280;72676;47.526;8.538;2023-09-19T03:15:20;96405.69;;;18.24;73.57
73024;BME280;72676;47.526;8.538;2023-09-19T03:17:48;96406.31;;;18.11;73.96
73024;BME280;72676;47.526;8.538;2023-09-19T03:20:15;96408.00;;;18.12;73.74
73024;BME280;72676;47.526;8.538;2023-09-19T03:22:44;96401.19;;;17.95;74.54
73024;BME280;72676;47.526;8.538;2023-09-19T03:25:12;96400.16;;;17.82;74.77
73024;BME280;72676;47.526;8.538;2023-09-19T03:27:39;96407.47;;;17.80;74.54
73024;BME280;72676;47.526;8.538;2023-09-19T03:30:07;96401.34;;;17.80;74.33
73024;BME280;72676;47.526;8.538;2023-09-19T03:32:35;96395.50;;;17.84;74.23
73024;BME280;72676;47.526;8.538;2023-09-19T03:35:03;96399.25;;;17.89;74.13
73024;BME280;72676;47.526;8.538;2023-09-19T03:37:31;96397.06;;;17.93;73.65
73024;BME280;72676;47.526;8.538;2023-09-19T03:39:59;96404.41;;;17.91;73.08
73024;BME280;72676;47.526;8.538;2023-09-19T03:42:25;96402.28;;;17.87;73.57
73024;BME280;72676;47.526;8.538;2023-09-19T03:44:52;96395.22;;;17.79;73.70
73024;BME280;72676;47.526;8.538;2023-09-19T03:47:21;96398.28;;;17.68;73.89
73024;BME280;72676;47.526;8.538;2023-09-19T03:49:47;96400.25;;;17.74;74.06
73024;BME280;72676;47.526;8.538;2023-09-19T03:52:14;96395.41;;;17.78;74.23
73024;BME280;72676;47.526;8.538;2023-09-19T03:54:42;96398.63;;;17.88;73.21
73024;BME280;72676;47.526;8.538;2023-09-19T03:57:09;96395.22;;;17.79;74.37
73024;BME280;72676;47.526;8.538;2023-09-19T03:59:36;96398.56;;;17.95;73.85
73024;BME280;72676;47.526;8.538;2023-09-19T04:02:02;96404.53;;;18.26;72.87
73024;BME280;72676;47.526;8.538;2023-09-19T04:04:29;96405.84;;;18.30;72.31
73024;BME280;72676;47.526;8.538;2023-09-19T04:06:56;96408.59;;;18.37;71.70
73024;BME280;72676;47.526;8.538;2023-09-19T04:09:22;96407.81;;;18.28;72.07
73024;BME280;72676;47.526;8.538;2023-09-19T04:11:49;96402.38;;;17.93;73.34
73024;BME280;72676;47.526;8.538;2023-09-19T04:14:16;96404.88;;;18.09;72.84
73024;BME280;72676;47.526;8.538;2023-09-19T04:16:42;96403.88;;;18.10;72.43
73024;BME280;72676;47.526;8.538;2023-09-19T04:19:09;96405.22;;;18.06;72.57
73024;BME280;72676;47.526;8.538;2023-09-19T04:21:36;96406.22;;;18.05;72.83
73024;BME280;72676;47.526;8.538;2023-09-19T04:24:03;96406.22;;;17.90;73.18
73024;BME280;72676;47.526;8.538;2023-09-19T04:26:30;96415.00;;;17.91;72.85
73024;BME280;72676;47.526;8.538;2023-09-19T04:28:57;96418.88;;;17.81;73.82
73024;BME280;72676;47.526;8.538;2023-09-19T04:31:23;96414.66;;;17.72;73.30
73024;BME280;72676;47.526;8.538;2023-09-19T04:33:50;96421.72;;;17.79;73.20
73024;BME280;72676;47.526;8.538;2023-09-19T04:36:17;96417.34;;;17.86;72.97
73024;BME280;72676;47.526;8.538;2023-09-19T04:39:01;96426.81;;;18.03;72.33
73024;BME280;72676;47.526;8.538;2023-09-19T04:41:31;96434.47;;;17.98;72.87
73024;BME280;72676;47.526;8.538;2023-09-19T04:43:57;96433.47;;;17.99;72.28
73024;BME280;72676;47.526;8.538;2023-09-19T04:46:24;96442.38;;;18.20;72.69
73024;BME280;72676;47.526;8.538;2023-09-19T04:48:51;96444.81;;;18.30;71.45
73024;BME280;72676;47.526;8.538;2023-09-19T04:51:17;96447.53;;;18.36;71.71
73024;BME280;72676;47.526;8.538;2023-09-19T04:53:45;96444.34;;;18.41;71.40
73024;BME280;72676;47.526;8.538;2023-09-19T04:56:11;96450.53;;;18.19;72.18
73024;BME280;72676;47.526;8.538;2023-09-19T04:58:38;96451.78;;;18.23;72.21
73024;BME280;72676;47.526;8.538;2023-09-19T05:01:04;96463.47;;;18.14;72.80
73024;BME280;72676;47.526;8.538;2023-09-19T05:03:31;96457.16;;;18.15;71.52
73024;BME280;72676;47.526;8.538;2023-09-19T05:05:57;96459.66;;;18.16;73.10
73024;BME280;72676;47.526;8.538;2023-09-19T05:08:24;96470.16;;;18.10;72.91
73024;BME280;72676;47.526;8.538;2023-09-19T05:10:51;96468.66;;;18.30;72.82
73024;BME280;72676;47.526;8.538;2023-09-19T05:13:18;96471.16;;;18.09;73.46
73024;BME280;72676;47.526;8.538;2023-09-19T05:15:44;96466.19;;;18.06;73.58
73024;BME280;72676;47.526;8.538;2023-09-19T05:18:10;96471.66;;;17.90;74.23
73024;BME280;72676;47.526;8.538;2023-09-19T05:20:37;96480.78;;;17.65;75.88
73024;BME280;72676;47.526;8.538;2023-09-19T05:23:06;96487.56;;;17.90;75.04
73024;BME280;72676;47.526;8.538;2023-09-19T05:25:40;96485.78;;;17.60;76.83
73024;BME280;72676;47.526;8.538;2023-09-19T05:28:09;96480.84;;;17.57;76.79
73024;BME280;72676;47.526;8.538;2023-09-19T05:30:37;96488.50;;;17.75;76.52
73024;BME280;72676;47.526;8.538;2023-09-19T05:33:07;96492.38;;;17.42;77.88
73024;BME280;72676;47.526;8.538;2023-09-19T05:35:34;96490.72;;;17.33;78.34
73024;BME280;72676;47.526;8.538;2023-09-19T05:38:00;96497.81;;;17.40;78.06
73024;BME280;72676;47.526;8.538;2023-09-19T05:40:27;96492.91;;;17.29;79.10
73024;BME280;72676;47.526;8.538;2023-09-19T05:42:53;96495.84;;;17.34;79.06
73024;BME280;72676;47.526;8.538;2023-09-19T05:45:20;96497.69;;;17.34;78.73
73024;BME280;72676;47.526;8.538;2023-09-19T05:47:50;96489.78;;;17.56;78.49
73024;BME280;72676;47.526;8.538;2023-09-19T05:50:17;96489.91;;;17.85;77.19
73024;BME280;72676;47.526;8.538;2023-09-19T05:52:51;96490.00;;;18.14;76.05
73024;BME280;72676;47.526;8.538;2023-09-19T05:55:19;96499.50;;;18.31;75.03
73024;BME280;72676;47.526;8.538;2023-09-19T05:57:50;96497.22;;;18.05;75.99
73024;BME280;72676;47.526;8.538;2023-09-19T06:00:21;96493.72;;;18.05;75.91
73024;BME280;72676;47.526;8.538;2023-09-19T06:02:56;96494.13;;;18.16;75.58
73024;BME280;72676;47.526;8.538;2023-09-19T06:05:25;96502.25;;;18.15;75.96
73024;BME280;72676;47.526;8.538;2023-09-19T06:07:53;96504.06;;;18.00;76.54
73024;BME280;72676;47.526;8.538;2023-09-19T06:10:20;96504.97;;;18.07;76.72
73024;BME280;72676;47.526;8.538;2023-09-19T06:12:49;96508.56;;;18.14;75.82
73024;BME280;72676;47.526;8.538;2023-09-19T06:15:16;96507.75;;;18.13;76.21
73024;BME280;72676;47.526;8.538;2023-09-19T06:17:49;96518.16;;;18.15;75.89
73024;BME280;72676;47.526;8.538;2023-09-19T06:20:16;96510.44;;;18.28;75.41
73024;BME280;72676;47.526;8.538;2023-09-19T06:22:44;96505.31;;;18.26;74.94
73024;BME280;72676;47.526;8.538;2023-09-19T06:25:12;96510.41;;;18.36;74.63
73024;BME280;72676;47.526;8.538;2023-09-19T06:27:39;96508.09;;;18.47;74.37
73024;BME280;72676;47.526;8.538;2023-09-19T06:30:09;96513.81;;;18.59;73.77
73024;BME280;72676;47.526;8.538;2023-09-19T06:32:38;96512.31;;;18.42;74.43
73024;BME280;72676;47.526;8.538;2023-09-19T06:35:05;96511.50;;;18.41;74.55
73024;BME280;72676;47.526;8.538;2023-09-19T06:37:38;96509.47;;;18.29;74.75
73024;BME280;72676;47.526;8.538;2023-09-19T06:42:45;96519.56;;;18.25;75.62
73024;BME280;72676;47.526;8.538;2023-09-19T06:45:15;96521.75;;;18.22;75.72
73024;BME280;72676;47.526;8.538;2023-09-19T06:47:46;96523.38;;;18.31;75.18
73024;BME280;72676;47.526;8.538;2023-09-19T06:50:17;96529.22;;;18.41;75.13
73024;BME280;72676;47.526;8.538;2023-09-19T06:52:46;96532.00;;;18.25;75.41
73024;BME280;72676;47.526;8.538;2023-09-19T06:55:17;96530.34;;;18.24;75.68
73024;BME280;72676;47.526;8.538;2023-09-19T06:57:46;96539.16;;;18.02;76.03
73024;BME280;72676;47.526;8.538;2023-09-19T07:00:13;96536.78;;;18.29;75.84
73024;BME280;72676;47.526;8.538;2023-09-19T07:03:05;96543.25;;;18.35;74.66
73024;BME280;72676;47.526;8.538;2023-09-19T07:05:34;96548.53;;;18.35;74.94
73024;BME280;72676;47.526;8.538;2023-09-19T07:08:07;96550.88;;;18.30;74.71
73024;BME280;72676;47.526;8.538;2023-09-19T07:10:36;96546.88;;;18.34;75.29
73024;BME280;72676;47.526;8.538;2023-09-19T07:13:04;96542.69;;;18.39;74.91
73024;BME280;72676;47.526;8.538;2023-09-19T07:15:33;96541.16;;;18.45;74.84
73024;BME280;72676;47.526;8.538;2023-09-19T07:18:06;96541.84;;;18.39;75.15
73024;BME280;72676;47.526;8.538;2023-09-19T07:20:32;96542.44;;;18.49;74.53
73024;BME280;72676;47.526;8.538;2023-09-19T07:23:00;96539.06;;;18.55;74.33
73024;BME280;72676;47.526;8.538;2023-09-19T07:25:27;96549.06;;;18.67;74.36
73024;BME280;72676;47.526;8.538;2023-09-19T07:27:55;96553.16;;;18.70;74.29
73024;BME280;72676;47.526;8.538;2023-09-19T07:30:22;96544.28;;;18.63;73.99
73024;BME280;72676;47.526;8.538;2023-09-19T07:32:49;96553.69;;;18.51;74.26
73024;BME280;72676;47.526;8.538;2023-09-19T07:35:16;96553.97;;;18.56;74.03
73024;BME280;72676;47.526;8.538;2023-09-19T07:37:42;96550.81;;;18.38;74.25
73024;BME280;72676;47.526;8.538;2023-09-19T07:40:09;96559.97;;;18.35;74.54
73024;BME280;72676;47.526;8.538;2023-09-19T07:42:36;96555.19;;;18.31;74.71
73024;BME280;72676;47.526;8.538;2023-09-19T07:45:05;96559.97;;;18.35;75.26
73024;BME280;72676;47.526;8.538;2023-09-19T07:47:33;96563.09;;;18.39;74.39
73024;BME280;72676;47.526;8.538;2023-09-19T07:50:00;96567.66;;;18.22;74.61
73024;BME280;72676;47.526;8.538;2023-09-19T07:52:29;96574.63;;;18.23;74.94
73024;BME280;72676;47.526;8.538;2023-09-19T07:54:55;96574.06;;;18.36;74.63
73024;BME280;72676;47.526;8.538;2023-09-19T07:57:24;96578.75;;;18.48;73.95
73024;BME280;72676;47.526;8.538;2023-09-19T07:59:51;96575.56;;;18.53;73.89
73024;BME280;72676;47.526;8.538;2023-09-19T08:02:17;96580.06;;;18.67;73.46
73024;BME280;72676;47.526;8.538;2023-09-19T08:04:45;96581.88;;;18.66;73.21
73024;BME280;72676;47.526;8.538;2023-09-19T08:07:15;96580.25;;;18.65;72.81
73024;BME280;72676;47.526;8.538;2023-09-19T08:09:42;96587.09;;;18.60;72.30
73024;BME280;72676;47.526;8.538;2023-09-19T08:12:12;96577.78;;;18.64;72.41
73024;BME280;72676;47.526;8.538;2023-09-19T08:14:38;96594.06;;;18.61;72.39
73024;BME280;72676;47.526;8.538;2023-09-19T08:17:07;96586.91;;;18.47;72.58
73024;BME280;72676;47.526;8.538;2023-09-19T08:19:37;96587.84;;;18.54;71.66
73024;BME280;72676;47.526;8.538;2023-09-19T08:22:08;96587.41;;;18.65;71.39
73024;BME280;72676;47.526;8.538;2023-09-19T08:24:36;96576.34;;;18.76;72.59
73024;BME280;72676;47.526;8.538;2023-09-19T08:27:04;96583.50;;;18.90;71.76
73024;BME280;72676;47.526;8.538;2023-09-19T08:29:31;96586.97;;;19.05;71.49
73024;BME280;72676;47.526;8.538;2023-09-19T08:31:57;96578.03;;;19.20;71.34
73024;BME280;72676;47.526;8.538;2023-09-19T08:34:26;96590.31;;;19.21;70.92
73024;BME280;72676;47.526;8.538;2023-09-19T08:36:54;96597.81;;;19.18;70.46
73024;BME280;72676;47.526;8.538;2023-09-19T08:39:24;96594.47;;;19.16;70.60
73024;BME280;72676;47.526;8.538;2023-09-19T08:41:58;96592.78;;;19.23;70.55
73024;BME280;72676;47.526;8.538;2023-09-19T08:44:28;96601.59;;;19.23;70.44
73024;BME280;72676;47.526;8.538;2023-09-19T08:47:19;96593.88;;;19.28;70.14
73024;BME280;72676;47.526;8.538;2023-09-19T08:50:04;96598.00;;;19.31;69.35
73024;BME280;72676;47.526;8.538;2023-09-19T08:52:42;96601.38;;;19.39;68.75
73024;BME280;72676;47.526;8.538;2023-09-19T08:55:13;96599.03;;;19.30;69.15
73024;BME280;72676;47.526;8.538;2023-09-19T08:57:49;96600.97;;;19.36;68.82
73024;BME280;72676;47.526;8.538;2023-09-19T09:00:16;96600.56;;;19.39;67.97
73024;BME280;72676;47.526;8.538;2023-09-19T09:02:47;96608.34;;;19.26;68.60
73024;BME280;72676;47.526;8.538;2023-09-19T09:05:16;96607.53;;;19.25;68.97
73024;BME280;72676;47.526;8.538;2023-09-19T09:07:49;96606.63;;;19.33;69.40
73024;BME280;72676;47.526;8.538;2023-09-19T09:10:21;96602.94;;;19.34;69.79
73024;BME280;72676;47.526;8.538;2023-09-19T09:12:53;96609.91;;;19.20;69.89
73024;BME280;72676;47.526;8.538;2023-09-19T09:15:24;96619.81;;;19.26;70.06
73024;BME280;72676;47.526;8.538;2023-09-19T09:17:51;96611.94;;;19.18;70.11
73024;BME280;72676;47.526;8.538;2023-09-19T09:20:19;96603.63;;;19.36;69.06
73024;BME280;72676;47.526;8.538;2023-09-19T09:22:53;96615.13;;;19.28;68.82
73024;BME280;72676;47.526;8.538;2023-09-19T09:25:21;96614.03;;;19.23;68.81
73024;BME280;72676;47.526;8.538;2023-09-19T09:28:01;96617.31;;;19.25;69.26
73024;BME280;72676;47.526;8.538;2023-09-19T09:30:35;96612.00;;;19.25;69.25
73024;BME280;72676;47.526;8.538;2023-09-19T09:33:10;96618.53;;;19.37;69.44
73024;BME280;72676;47.526;8.538;2023-09-19T09:35:49;96607.69;;;19.53;69.71
73024;BME280;72676;47.526;8.538;2023-09-19T09:38:22;96618.78;;;19.56;68.96
73024;BME280;72676;47.526;8.538;2023-09-19T09:40:55;96611.66;;;19.42;68.93
73024;BME280;72676;47.526;8.538;2023-09-19T09:43:37;96607.28;;;19.49;68.40
73024;BME280;72676;47.526;8.538;2023-09-19T09:46:19;96609.19;;;19.41;68.13
73024;BME280;72676;47.526;8.538;2023-09-19T09:49:01;96606.34;;;19.28;68.23
73024;BME280;72676;47.526;8.538;2023-09-19T09:51:44;96610.19;;;19.54;68.39
73024;BME280;72676;47.526;8.538;2023-09-19T09:54:28;96596.75;;;19.77;67.19
73024;BME280;72676;47.526;8.538;2023-09-19T09:57:01;96595.50;;;19.73;67.42
73024;BME280;72676;47.526;8.538;2023-09-19T09:59:56;96597.47;;;19.85;67.48
73024;BME280;72676;47.526;8.538;2023-09-19T10:02:42;96592.56;;;20.03;66.00
73024;BME280;72676;47.526;8.538;2023-09-19T10:05:21;96587.97;;;20.33;66.08
73024;BME280;72676;47.526;8.538;2023-09-19T10:07:54;96588.44;;;20.15;65.85
73024;BME280;72676;47.526;8.538;2023-09-19T10:10:40;96584.69;;;20.31;64.59
73024;BME280;72676;47.526;8.538;2023-09-19T10:13:08;96590.28;;;20.36;64.93
73024;BME280;72676;47.526;8.538;2023-09-19T10:15:39;96575.31;;;20.35;65.38
73024;BME280;72676;47.526;8.538;2023-09-19T10:18:14;96584.13;;;20.35;65.14
73024;BME280;72676;47.526;8.538;2023-09-19T10:20:45;96587.97;;;20.12;64.25
73024;BME280;72676;47.526;8.538;2023-09-19T10:23:12;96592.28;;;20.34;65.54
73024;BME280;72676;47.526;8.538;2023-09-19T10:25:43;96595.22;;;20.18;65.04
73024;BME280;72676;47.526;8.538;2023-09-19T10:28:14;96594.56;;;20.16;65.10
73024;BME280;72676;47.526;8.538;2023-09-19T10:30:46;96590.38;;;20.07;65.17
73024;BME280;72676;47.526;8.538;2023-09-19T10:33:17;96584.25;;;20.27;64.96
73024;BME280;72676;47.526;8.538;2023-09-19T10:35:47;96589.75;;;20.26;64.12
73024;BME280;72676;47.526;8.538;2023-09-19T10:38:18;96585.72;;;20.30;64.86
73024;BME280;72676;47.526;8.538;2023-09-19T10:40:50;96584.75;;;20.37;64.53
73024;BME280;72676;47.526;8.538;2023-09-19T10:43:20;96594.06;;;20.48;63.90
73024;BME280;72676;47.526;8.538;2023-09-19T10:45:48;96603.06;;;20.47;63.35
73024;BME280;72676;47.526;8.538;2023-09-19T10:48:16;96589.75;;;20.26;63.94
73024;BME280;72676;47.526;8.538;2023-09-19T10:53:27;96586.53;;;20.09;64.04
73024;BME280;72676;47.526;8.538;2023-09-19T10:55:57;96581.66;;;20.55;64.07
73024;BME280;72676;47.526;8.538;2023-09-19T10:58:27;96581.47;;;20.84;63.60
73024;BME280;72676;47.526;8.538;2023-09-19T11:00:57;96585.88;;;20.70;62.80
73024;BME280;72676;47.526;8.538;2023-09-19T11:03:29;96577.19;;;20.62;63.26
73024;BME280;72676;47.526;8.538;2023-09-19T11:06:08;96573.56;;;20.90;62.71
73024;BME280;72676;47.526;8.538;2023-09-19T11:08:53;96571.25;;;21.14;62.20
73024;BME280;72676;47.526;8.538;2023-09-19T11:30:36;96566.19;;;21.19;61.60
73024;BME280;72676;47.526;8.538;2023-09-19T11:33:28;96553.38;;;21.42;61.11
73024;BME280;72676;47.526;8.538;2023-09-19T11:36:08;96552.28;;;21.71;59.83
73024;BME280;72676;47.526;8.538;2023-09-19T11:43:48;96547.25;;;22.08;59.03
73024;BME280;72676;47.526;8.538;2023-09-19T11:46:19;96549.03;;;21.75;59.79
73024;BME280;72676;47.526;8.538;2023-09-19T11:48:48;96556.00;;;21.36;61.40
73024;BME280;72676;47.526;8.538;2023-09-19T11:51:18;96552.53;;;21.02;62.07
73024;BME280;72676;47.526;8.538;2023-09-19T11:53:46;96553.78;;;20.78;63.71
73024;BME280;72676;47.526;8.538;2023-09-19T11:56:18;96549.72;;;21.10;62.26
73024;BME280;72676;47.526;8.538;2023-09-19T11:58:45;96550.84;;;21.34;62.09
73024;BME280;72676;47.526;8.538;2023-09-19T12:01:13;96542.53;;;21.50;61.78
73024;BME280;72676;47.526;8.538;2023-09-19T12:03:45;96534.72;;;21.96;60.83
73024;BME280;72676;47.526;8.538;2023-09-19T12:06:15;96535.56;;;21.56;60.19
73024;BME280;72676;47.526;8.538;2023-09-19T12:08:42;96537.00;;;22.05;59.42
73024;BME280;72676;47.526;8.538;2023-09-19T12:11:14;96543.38;;;22.17;58.54
73024;BME280;72676;47.526;8.538;2023-09-19T12:13:44;96537.25;;;22.36;57.53
73024;BME280;72676;47.526;8.538;2023-09-19T12:16:19;96526.97;;;22.33;56.99
73024;BME280;72676;47.526;8.538;2023-09-19T12:18:49;96531.34;;;22.47;56.66
73024;BME280;72676;47.526;8.538;2023-09-19T12:21:23;96518.75;;;22.35;56.22
73024;BME280;72676;47.526;8.538;2023-09-19T12:24:12;96515.69;;;22.44;56.80
73024;BME280;72676;47.526;8.538;2023-09-19T12:26:46;96517.50;;;22.18;57.17
73024;BME280;72676;47.526;8.538;2023-09-19T12:29:20;96514.69;;;22.58;56.47
73024;BME280;72676;47.526;8.538;2023-09-19T12:31:51;96517.53;;;22.63;55.83
73024;BME280;72676;47.526;8.538;2023-09-19T12:34:22;96505.44;;;22.61;56.62
73024;BME280;72676;47.526;8.538;2023-09-19T12:37:05;96508.53;;;22.45;56.52
73024;BME280;72676;47.526;8.538;2023-09-19T12:39:42;96504.00;;;22.45;56.69
73024;BME280;72676;47.526;8.538;2023-09-19T12:42:12;96500.47;;;22.19;57.72
73024;BME280;72676;47.526;8.538;2023-09-19T12:44:44;96497.81;;;22.12;57.96
73024;BME280;72676;47.526;8.538;2023-09-19T12:47:15;96496.13;;;21.85;57.99
73024;BME280;72676;47.526;8.538;2023-09-19T12:50:13;96494.91;;;22.01;58.03
73024;BME280;72676;47.526;8.538;2023-09-19T12:52:45;96494.28;;;21.92;58.06
73024;BME280;72676;47.526;8.538;2023-09-19T13:00:31;96473.13;;;21.97;57.60
73024;BME280;72676;47.526;8.538;2023-09-19T13:05:50;96480.56;;;22.67;56.95
73024;BME280;72676;47.526;8.538;2023-09-19T13:13:49;96464.44;;;23.19;55.22
73024;BME280;72676;47.526;8.538;2023-09-19T13:16:21;96462.66;;;23.50;54.16
73024;BME280;72676;47.526;8.538;2023-09-19T13:18:53;96462.28;;;23.40;52.29
73024;BME280;72676;47.526;8.538;2023-09-19T13:21:31;96456.88;;;22.96;54.44
73024;BME280;72676;47.526;8.538;2023-09-19T13:24:22;96456.28;;;22.88;53.82
73024;BME280;72676;47.526;8.538;2023-09-19T13:26:49;96449.06;;;23.01;53.88
73024;BME280;72676;47.526;8.538;2023-09-19T13:29:16;96447.63;;;22.99;53.59
73024;BME280;72676;47.526;8.538;2023-09-19T13:31:52;96447.25;;;23.46;52.54
73024;BME280;72676;47.526;8.538;2023-09-19T13:34:22;96444.03;;;23.68;49.89
73024;BME280;72676;47.526;8.538;2023-09-19T13:36:49;96432.41;;;23.50;50.45
73024;BME280;72676;47.526;8.538;2023-09-19T13:39:16;96441.31;;;23.44;49.53
73024;BME280;72676;47.526;8.538;2023-09-19T13:41:49;96441.72;;;23.41;49.28
73024;BME280;72676;47.526;8.538;2023-09-19T13:44:15;96439.91;;;23.35;49.88
73024;BME280;72676;47.526;8.538;2023-09-19T13:46:44;96440.31;;;23.38;50.24
73024;BME280;72676;47.526;8.538;2023-09-19T13:49:13;96429.75;;;23.81;50.55
73024;BME280;72676;47.526;8.538;2023-09-19T13:51:39;96427.53;;;24.09;49.58
73024;BME280;72676;47.526;8.538;2023-09-19T13:54:09;96430.03;;;23.73;49.70
73024;BME280;72676;47.526;8.538;2023-09-19T13:56:38;96429.53;;;23.89;49.85
73024;BME280;72676;47.526;8.538;2023-09-19T13:59:05;96419.03;;;23.56;50.14
73024;BME280;72676;47.526;8.538;2023-09-19T14:01:32;96424.28;;;23.69;50.14
73024;BME280;72676;47.526;8.538;2023-09-19T14:03:58;96421.94;;;23.86;49.94
73024;BME280;72676;47.526;8.538;2023-09-19T14:06:25;96406.44;;;23.94;49.57
73024;BME280;72676;47.526;8.538;2023-09-19T14:08:51;96397.63;;;23.87;49.14
73024;BME280;72676;47.526;8.538;2023-09-19T14:11:18;96404.81;;;23.87;47.99
73024;BME280;72676;47.526;8.538;2023-09-19T14:13:44;96396.59;;;23.57;49.25
73024;BME280;72676;47.526;8.538;2023-09-19T14:16:16;96396.94;;;23.30;49.30